Nearby METAR Reports

 

EGQL - Leuchars Raf, United Kingdom
Distance from station: SW 17km
Updated: 18/11/2019 05:50
Clear
Clear
 Wind from W
Wind: W 11 km/h
Temperature: 5°C
Wind Chill: 2°C
Dew Point: 0°C
Humidity: 70%
Barometer: 1017 hPa
Summary: Clear
Visibility: greater than 10 km
2019/11/18 13:50 EGQL 181350Z 26006KT CAVOK 05/00 Q1017 BLU
EGPN - Dundee/Riverside, United Kingdom
Distance from station: WSW 20km
Updated: 18/11/2019 05:50
Clear
Clear
 Wind from WSW
Wind: WSW 9 km/h
Temperature: 5°C
Wind Chill: 3°C
Dew Point: 2°C
Humidity: 81%
Barometer: 1018 hPa
Summary: Clear
Visibility: greater than 10 km
2019/11/18 13:50 EGPN 181350Z 25005KT CAVOK 05/02 Q1018
 
EGPH - Edinburgh Airpor, United Kingdom
Distance from station: SSW 74km
Updated: 18/11/2019 05:50
Clear
Clear
 Wind from WSW
Wind: WSW 9 km/h
Temperature: 5°C
Wind Chill: 3°C
Dew Point: 0°C
Humidity: 70%
Barometer: 1018 hPa
Summary: Clear
Visibility: greater than 10 km
2019/11/18 13:50 EGPH 181350Z 25005KT CAVOK 05/00 Q1018
EGPD - Aberdeen/Dyce, United Kingdom
Distance from station: NNE 82km
Updated: 18/11/2019 05:50
Clear
Clear
 Wind from WNW
Wind: WNW 19 km/h
Temperature: 5°C
Wind Chill: 1°C
Dew Point: 0°C
Humidity: 70%
Barometer: 1017 hPa
Clouds: Clear
Visibility: 10 km
2019/11/18 13:50 EGPD 181350Z AUTO 30010KT 9999 NCD 05/00 Q1017